createdAt,value
2022-12-11T00:00:55.558Z,98196.00
2022-12-11T00:03:58.073Z,98181.69
2022-12-11T00:07:00.458Z,98184.50
2022-12-11T00:10:03.747Z,98179.78
2022-12-11T00:13:05.840Z,98174.69
2022-12-11T00:16:08.865Z,98172.81
2022-12-11T00:19:11.085Z,98179.44
2022-12-11T00:22:13.551Z,98179.31
2022-12-11T00:25:15.960Z,98173.41
2022-12-11T00:28:19.823Z,98179.31
2022-12-11T00:31:23.108Z,98170.59
2022-12-11T00:34:25.702Z,98174.09
2022-12-11T00:37:28.075Z,98177.63
2022-12-11T00:40:33.082Z,98176.59
2022-12-11T00:43:35.645Z,98171.87
2022-12-11T00:46:40.167Z,98173.75
2022-12-11T00:49:48.028Z,98180.50
2022-12-11T00:52:52.089Z,98182.16
2022-12-11T00:55:54.246Z,98179.66
2022-12-11T00:58:56.719Z,98180.94
2022-12-11T01:01:58.894Z,98177.28
2022-12-11T01:05:01.366Z,98181.88
2022-12-11T01:08:03.866Z,98179.75
2022-12-11T01:11:10.201Z,98177.94
2022-12-11T01:14:12.980Z,98176.19
2022-12-11T01:17:15.471Z,98188.84
2022-12-11T01:20:19.726Z,98202.50
2022-12-11T01:23:22.267Z,98198.50
2022-12-11T01:26:24.440Z,98193.38
2022-12-11T01:29:26.845Z,98196.53
2022-12-11T01:32:29.029Z,98209.19
2022-12-11T01:35:31.621Z,98197.16
2022-12-11T01:38:33.704Z,98206.50
2022-12-11T01:41:36.246Z,98205.31
2022-12-11T01:44:38.259Z,98205.78
2022-12-11T01:47:40.680Z,98189.88
2022-12-11T01:50:51.233Z,98198.91
2022-12-11T01:54:02.216Z,98196.53
2022-12-11T01:57:07.688Z,98202.53
2022-12-11T02:00:12.293Z,98203.91
2022-12-11T02:03:15.165Z,98202.41
2022-12-11T02:06:41.589Z,98199.69
2022-12-11T02:09:46.633Z,98208.13
2022-12-11T02:13:13.040Z,98190.47
2022-12-11T02:16:35.354Z,98190.31
2022-12-11T02:20:19.507Z,98184.81
2022-12-11T02:23:37.560Z,98197.88
2022-12-11T02:27:00.649Z,98192.09
2022-12-11T02:30:09.121Z,98180.13
2022-12-11T02:33:13.775Z,98177.25
2022-12-11T02:36:20.058Z,98181.09
2022-12-11T02:39:25.611Z,98180.59
2022-12-11T02:42:31.318Z,98162.69
2022-12-11T02:45:35.265Z,98165.63
2022-12-11T02:48:40.452Z,98169.03
2022-12-11T02:51:44.402Z,98172.34
2022-12-11T02:54:48.763Z,98164.87
2022-12-11T02:57:58.129Z,98164.16
2022-12-11T03:01:00.574Z,98167.66
2022-12-11T03:04:03.419Z,98174.84
2022-12-11T03:07:28.055Z,98173.84
2022-12-11T03:10:30.759Z,98161.81
2022-12-11T03:13:32.926Z,98155.09
2022-12-11T03:16:40.061Z,98163.19
2022-12-11T03:20:10.796Z,98155.75
2022-12-11T03:23:21.642Z,98160.41
2022-12-11T03:26:24.611Z,98169.00
2022-12-11T03:29:35.151Z,98161.84
2022-12-11T03:32:55.318Z,98171.69
2022-12-11T03:36:03.981Z,98162.66
2022-12-11T03:39:12.486Z,98157.06
2022-12-11T03:42:17.396Z,98159.56
2022-12-11T03:45:22.216Z,98165.47
2022-12-11T03:48:30.783Z,98162.06
2022-12-11T03:51:35.556Z,98175.81
2022-12-11T03:54:40.262Z,98177.59
2022-12-11T03:57:43.513Z,98166.41
2022-12-11T04:00:46.170Z,98170.13
2022-12-11T04:03:48.586Z,98176.47
2022-12-11T04:06:50.744Z,98189.72
2022-12-11T04:09:53.125Z,98179.34
2022-12-11T04:12:55.218Z,98190.34
2022-12-11T04:15:57.729Z,98186.69
2022-12-11T04:19:18.603Z,98191.03
2022-12-11T04:22:39.487Z,98193.22
2022-12-11T04:25:41.658Z,98184.72
2022-12-11T04:28:45.642Z,98199.84
2022-12-11T04:31:47.788Z,98199.00
2022-12-11T04:34:50.219Z,98202.63
2022-12-11T04:37:52.934Z,98208.41
2022-12-11T04:41:03.591Z,98213.41
2022-12-11T04:44:05.724Z,98216.09
2022-12-11T04:47:08.166Z,98213.31
2022-12-11T04:50:12.683Z,98220.66
2022-12-11T04:53:15.105Z,98233.06
2022-12-11T04:56:17.297Z,98237.69
2022-12-11T04:59:19.732Z,98235.75
2022-12-11T05:02:21.993Z,98241.34
2022-12-11T05:05:24.454Z,98240.41
2022-12-11T05:08:26.575Z,98246.41
2022-12-11T05:11:29.031Z,98256.28
2022-12-11T05:14:32.418Z,98250.78
2022-12-11T05:17:34.850Z,98249.31
2022-12-11T05:20:37.011Z,98255.72
2022-12-11T05:23:40.197Z,98250.69
2022-12-11T05:26:42.317Z,98260.91
2022-12-11T05:29:44.701Z,98267.91
2022-12-11T05:32:46.961Z,98260.16
2022-12-11T05:35:50.040Z,98258.16
2022-12-11T05:38:52.848Z,98245.38
2022-12-11T05:41:55.208Z,98246.31
2022-12-11T05:44:57.318Z,98265.03
2022-12-11T05:47:59.726Z,98267.41
2022-12-11T05:51:03.950Z,98262.13
2022-12-11T05:54:06.469Z,98262.09
2022-12-11T05:57:09.156Z,98255.25
2022-12-11T06:00:13.102Z,98261.78
2022-12-11T06:03:15.642Z,98261.88
2022-12-11T06:06:17.851Z,98270.09
2022-12-11T06:09:20.262Z,98282.84
2022-12-11T06:12:22.316Z,98277.25
2022-12-11T06:15:24.873Z,98292.69
2022-12-11T06:18:27.000Z,98292.09
2022-12-11T06:21:33.413Z,98304.22
2022-12-11T06:24:35.519Z,98327.13
2022-12-11T06:27:37.990Z,98325.56
2022-12-11T06:30:40.073Z,98320.66
2022-12-11T06:33:42.858Z,98336.72
2022-12-11T06:36:44.966Z,98331.59
2022-12-11T06:39:48.018Z,98331.78
2022-12-11T06:42:50.128Z,98325.47
2022-12-11T06:45:52.839Z,98338.81
2022-12-11T06:48:55.000Z,98357.41
2022-12-11T06:51:57.405Z,98351.38
2022-12-11T06:54:59.499Z,98351.94
2022-12-11T06:58:01.877Z,98359.25
2022-12-11T07:01:05.044Z,98370.16
2022-12-11T07:04:09.233Z,98374.41
2022-12-11T07:07:11.810Z,98377.16
2022-12-11T07:10:14.206Z,98376.53
2022-12-11T07:13:16.288Z,98387.25
2022-12-11T07:16:18.971Z,98389.72
2022-12-11T07:19:21.091Z,98391.53
2022-12-11T07:22:23.490Z,98407.87
2022-12-11T07:25:25.576Z,98411.09
2022-12-11T07:28:27.946Z,98414.53
2022-12-11T07:31:30.698Z,98408.66
2022-12-11T07:34:33.135Z,98412.47
2022-12-11T07:37:35.361Z,98413.81
2022-12-11T07:40:37.709Z,98426.22
2022-12-11T07:43:40.225Z,98426.97
2022-12-11T07:46:42.573Z,98448.75
2022-12-11T07:49:44.769Z,98440.59
2022-12-11T07:52:47.222Z,98457.44
2022-12-11T07:55:49.304Z,98449.41
2022-12-11T07:58:51.990Z,98465.31
2022-12-11T08:01:54.149Z,98474.09
2022-12-11T08:04:56.656Z,98472.41
2022-12-11T08:07:58.843Z,98463.09
2022-12-11T08:11:02.566Z,98461.53
2022-12-11T08:14:06.604Z,98468.00
2022-12-11T08:17:09.102Z,98503.34
2022-12-11T08:20:11.280Z,98498.38
2022-12-11T08:23:13.757Z,98500.94
2022-12-11T08:26:18.510Z,98496.50
2022-12-11T08:29:20.970Z,98522.09
2022-12-11T08:32:23.165Z,98513.69
2022-12-11T08:35:26.670Z,98514.56
2022-12-11T08:38:28.830Z,98520.84
2022-12-11T08:41:31.525Z,98536.88
2022-12-11T08:44:33.650Z,98547.00
2022-12-11T08:47:36.345Z,98543.84
2022-12-11T08:50:38.442Z,98555.06
2022-12-11T08:53:41.326Z,98559.56
2022-12-11T08:56:43.492Z,98546.25
2022-12-11T08:59:45.823Z,98550.09
2022-12-11T09:02:48.414Z,98568.09
2022-12-11T09:05:51.167Z,98585.50
2022-12-11T09:08:56.047Z,98573.22
2022-12-11T09:11:59.244Z,98566.44
2022-12-11T09:15:01.606Z,98571.94
2022-12-11T09:18:04.162Z,98581.16
2022-12-11T09:21:09.786Z,98569.97
2022-12-11T09:24:13.542Z,98562.78
2022-12-11T09:27:15.711Z,98562.75
2022-12-11T09:30:18.141Z,98582.63
2022-12-11T09:33:20.438Z,98584.91
2022-12-11T09:36:23.515Z,98586.22
2022-12-11T09:39:25.620Z,98575.97
2022-12-11T09:42:46.999Z,98565.63
2022-12-11T09:45:51.175Z,98557.47
2022-12-11T09:48:54.296Z,98575.97
2022-12-11T09:52:03.750Z,98549.19
2022-12-11T09:55:24.268Z,98535.44
2022-12-11T09:58:35.587Z,98547.75
2022-12-11T10:02:00.901Z,98532.91
2022-12-11T10:05:12.349Z,98528.63
2022-12-11T10:08:30.518Z,98518.72
2022-12-11T10:12:00.409Z,98515.84
2022-12-11T10:15:19.639Z,98519.50
2022-12-11T10:18:25.434Z,98534.34
2022-12-11T10:21:39.893Z,98549.16
2022-12-11T10:25:10.698Z,98559.56
2022-12-11T10:28:18.905Z,98564.94
2022-12-11T10:31:48.686Z,98586.03
2022-12-11T10:35:05.204Z,98585.84
2022-12-11T10:38:15.007Z,98560.50
2022-12-11T10:41:33.597Z,98567.66
2022-12-11T10:44:36.252Z,98569.94
2022-12-11T10:47:38.433Z,98588.19
2022-12-11T10:50:44.620Z,98594.38
2022-12-11T10:53:51.967Z,98594.09
2022-12-11T10:56:55.103Z,98591.59
2022-12-11T10:59:58.567Z,98594.56
2022-12-11T11:03:02.681Z,98599.19
2022-12-11T11:06:14.184Z,98605.19
2022-12-11T11:09:36.272Z,98594.84
2022-12-11T11:12:45.791Z,98582.25
2022-12-11T11:15:48.837Z,98596.59
2022-12-11T11:18:54.320Z,98582.31
2022-12-11T11:22:01.239Z,98572.75
2022-12-11T11:25:05.104Z,98578.28
2022-12-11T11:28:17.856Z,98586.78
2022-12-11T11:31:22.759Z,98568.91
2022-12-11T11:34:26.190Z,98579.44
2022-12-11T11:37:35.511Z,98574.16
2022-12-11T11:40:44.662Z,98590.84
2022-12-11T11:43:51.116Z,98603.97
2022-12-11T11:47:25.729Z,98609.59
2022-12-11T11:50:33.760Z,98606.56
2022-12-11T11:53:40.635Z,98616.75
2022-12-11T11:56:43.764Z,98606.87
2022-12-11T12:00:09.789Z,98621.37
2022-12-11T12:03:18.445Z,98612.97
2022-12-11T12:06:34.603Z,98622.09
2022-12-11T12:10:03.277Z,98636.28
2022-12-11T12:13:44.749Z,98643.47
2022-12-11T12:16:53.407Z,98645.88
2022-12-11T12:20:02.235Z,98647.44
2022-12-11T12:23:25.607Z,98650.56
2022-12-11T12:26:31.709Z,98656.03
2022-12-11T12:30:03.921Z,98654.53
2022-12-11T12:33:23.561Z,98658.91
2022-12-11T12:36:47.401Z,98651.34
2022-12-11T12:40:35.143Z,98650.88
2022-12-11T12:44:03.717Z,98663.00
2022-12-11T12:47:13.264Z,98665.03
2022-12-11T12:50:17.697Z,98676.53
2022-12-11T12:53:24.053Z,98675.84
2022-12-11T12:56:29.226Z,98685.00
2022-12-11T12:59:31.699Z,98684.75
2022-12-11T13:02:34.104Z,98705.69
2022-12-11T13:05:36.701Z,98717.16
2022-12-11T13:08:47.500Z,98722.31
2022-12-11T13:11:57.763Z,98725.84
2022-12-11T13:15:00.852Z,98720.94
2022-12-11T13:18:25.059Z,98709.84
2022-12-11T13:21:35.989Z,98736.19
2022-12-11T13:24:49.946Z,98748.06
2022-12-11T13:27:52.485Z,98743.91
2022-12-11T13:30:59.547Z,98742.97
2022-12-11T13:34:21.159Z,98739.62
2022-12-11T13:37:34.713Z,98753.06
2022-12-11T13:40:42.482Z,98752.66
2022-12-11T13:43:48.836Z,98767.13
2022-12-11T13:46:53.477Z,98760.81
2022-12-11T13:50:13.808Z,98766.84
2022-12-11T13:53:18.417Z,98762.69
2022-12-11T13:56:22.477Z,98770.19
2022-12-11T13:59:28.364Z,98779.81
2022-12-11T14:02:38.818Z,98794.16
2022-12-11T14:05:41.821Z,98788.97
2022-12-11T14:08:46.258Z,98802.66
2022-12-11T14:11:55.033Z,98811.09
2022-12-11T14:15:01.999Z,98809.41
2022-12-11T14:18:05.467Z,98821.25
2022-12-11T14:21:07.570Z,98825.31
2022-12-11T14:24:14.509Z,98835.00
2022-12-11T14:27:18.585Z,98833.97
2022-12-11T14:30:27.395Z,98835.34
2022-12-11T14:33:35.298Z,98839.91
2022-12-11T14:36:41.204Z,98851.34
2022-12-11T14:39:58.896Z,98861.25
2022-12-11T14:43:07.882Z,98852.63
2022-12-11T14:46:44.539Z,98858.09
2022-12-11T14:50:03.438Z,98856.69
2022-12-11T14:53:14.038Z,98872.75
2022-12-11T14:56:25.654Z,98874.06
2022-12-11T14:59:32.396Z,98876.47
2022-12-11T15:02:36.887Z,98874.09
2022-12-11T15:05:58.490Z,98875.69
2022-12-11T15:09:18.887Z,98874.28
2022-12-11T15:12:21.947Z,98882.38
2022-12-11T15:15:33.608Z,98888.13
2022-12-11T15:18:41.465Z,98895.22
2022-12-11T15:21:44.005Z,98891.53
2022-12-11T15:24:47.111Z,98881.53
2022-12-11T15:27:58.335Z,98903.00
2022-12-11T15:31:06.687Z,98887.22
2022-12-11T15:34:24.408Z,98894.22
2022-12-11T15:37:29.357Z,98900.16
2022-12-11T15:40:32.147Z,98903.41
2022-12-11T15:43:37.456Z,98897.72
2022-12-11T15:46:40.117Z,98897.88
2022-12-11T15:49:42.278Z,98902.13
2022-12-11T15:52:46.325Z,98898.72
2022-12-11T15:55:48.683Z,98901.72
2022-12-11T15:58:51.192Z,98892.94
2022-12-11T16:01:53.547Z,98902.87
2022-12-11T16:04:56.029Z,98898.78
2022-12-11T16:08:01.422Z,98912.88
2022-12-11T16:11:03.878Z,98918.91
2022-12-11T16:14:06.337Z,98913.13
2022-12-11T16:17:11.013Z,98916.88
2022-12-11T16:20:15.006Z,98914.47
2022-12-11T16:23:17.455Z,98920.31
2022-12-11T16:26:19.577Z,98918.16
2022-12-11T16:29:22.289Z,98918.09
2022-12-11T16:32:24.382Z,98926.34
2022-12-11T16:35:27.082Z,98914.62
2022-12-11T16:38:29.215Z,98919.91
2022-12-11T16:41:31.754Z,98923.09
2022-12-11T16:44:34.108Z,98922.00
2022-12-11T16:47:36.616Z,98927.56
2022-12-11T16:50:40.134Z,98926.50
2022-12-11T16:53:42.631Z,98930.38
2022-12-11T16:56:45.114Z,98931.84
2022-12-11T16:59:47.738Z,98920.75
2022-12-11T17:02:50.171Z,98929.19
2022-12-11T17:05:52.631Z,98924.94
2022-12-11T17:08:55.186Z,98929.34
2022-12-11T17:11:57.874Z,98930.78
2022-12-11T17:15:00.111Z,98919.69
2022-12-11T17:18:02.893Z,98915.00
2022-12-11T17:21:16.882Z,98917.75
2022-12-11T17:24:19.819Z,98918.16
2022-12-11T17:27:21.977Z,98920.53
2022-12-11T17:30:24.367Z,98923.44
2022-12-11T17:33:26.426Z,98924.44
2022-12-11T17:36:29.259Z,98940.09
2022-12-11T17:39:31.579Z,98934.31
2022-12-11T17:42:34.188Z,98931.12
2022-12-11T17:45:48.962Z,98940.72
2022-12-11T17:48:51.574Z,98929.91
2022-12-11T17:51:55.330Z,98938.88
2022-12-11T17:54:57.904Z,98935.38
2022-12-11T17:58:00.530Z,98924.47
2022-12-11T18:01:07.989Z,98938.88
2022-12-11T18:04:10.432Z,98933.78
2022-12-11T18:07:12.754Z,98944.28
2022-12-11T18:10:15.146Z,98944.13
2022-12-11T18:13:17.254Z,98952.44
2022-12-11T18:16:29.730Z,98951.88
2022-12-11T18:19:31.954Z,98946.03
2022-12-11T18:22:34.366Z,98950.44
2022-12-11T18:25:36.920Z,98960.03
2022-12-11T18:28:39.628Z,98953.09
2022-12-11T18:31:42.910Z,98959.78
2022-12-11T18:34:45.612Z,98972.84
2022-12-11T18:37:47.826Z,98974.75
2022-12-11T18:40:50.259Z,98967.16
2022-12-11T18:43:54.793Z,98976.59
2022-12-11T18:46:57.568Z,98983.59
2022-12-11T18:50:05.588Z,98979.84
2022-12-11T18:53:09.993Z,98977.09
2022-12-11T18:56:14.685Z,98974.53
2022-12-11T18:59:18.262Z,98984.09
2022-12-11T19:02:20.801Z,98984.56
2022-12-11T19:05:23.260Z,98984.34
2022-12-11T19:08:25.411Z,98993.44
2022-12-11T19:11:29.366Z,98987.53
2022-12-11T19:14:31.479Z,98992.78
2022-12-11T19:17:34.126Z,98983.91
2022-12-11T19:20:49.194Z,98998.00
2022-12-11T19:23:52.861Z,98994.28
2022-12-11T19:26:54.955Z,99002.66
2022-12-11T19:29:59.410Z,99015.13
2022-12-11T19:33:01.500Z,99003.50
2022-12-11T19:36:11.101Z,98993.81
2022-12-11T19:39:14.376Z,98999.59
2022-12-11T19:42:16.828Z,99002.19
2022-12-11T19:45:19.097Z,99013.06
2022-12-11T19:48:21.529Z,99013.44
2022-12-11T19:51:36.470Z,99018.22
2022-12-11T19:54:38.861Z,99022.50
2022-12-11T19:57:41.030Z,99016.63
2022-12-11T20:00:43.445Z,99025.97
2022-12-11T20:03:45.838Z,99018.63
2022-12-11T20:06:47.984Z,99020.38
2022-12-11T20:09:50.417Z,99016.09
2022-12-11T20:12:56.476Z,99025.69
2022-12-11T20:16:00.331Z,99025.25
2022-12-11T20:19:04.962Z,99025.44
2022-12-11T20:22:07.679Z,99033.59
2022-12-11T20:25:09.919Z,99038.13
2022-12-11T20:28:12.438Z,99035.44
2022-12-11T20:31:20.396Z,99034.22
2022-12-11T20:34:22.981Z,99029.84
2022-12-11T20:37:26.008Z,99044.69
2022-12-11T20:40:28.844Z,99046.22
2022-12-11T20:43:30.902Z,99045.88
2022-12-11T20:46:33.346Z,99059.97
2022-12-11T20:49:36.090Z,99059.03
2022-12-11T20:52:38.505Z,99069.91
2022-12-11T20:55:41.896Z,99055.69
2022-12-11T20:58:45.337Z,99066.16
2022-12-11T21:01:47.531Z,99067.31
2022-12-11T21:04:50.478Z,99066.00
2022-12-11T21:07:56.233Z,99086.69
2022-12-11T21:10:58.613Z,99076.94
2022-12-11T21:14:00.814Z,99094.97
2022-12-11T21:17:03.289Z,99089.94
2022-12-11T21:20:07.675Z,99092.72
2022-12-11T21:23:10.199Z,99101.16
2022-12-11T21:26:12.874Z,99096.75
2022-12-11T21:29:16.382Z,99109.25
2022-12-11T21:32:19.285Z,99104.91
2022-12-11T21:35:21.751Z,99108.56
2022-12-11T21:38:24.192Z,99108.50
2022-12-11T21:41:27.317Z,99101.87
2022-12-11T21:47:52.395Z,99116.72
2022-12-11T21:50:54.615Z,99124.13
2022-12-11T21:53:57.309Z,99117.09
2022-12-11T21:56:59.535Z,99135.44
2022-12-11T22:00:01.934Z,99142.28
2022-12-11T22:03:13.927Z,99128.16
2022-12-11T22:06:16.716Z,99135.28
2022-12-11T22:09:21.584Z,99140.66
2022-12-11T22:12:26.013Z,99149.44
2022-12-11T22:15:28.206Z,99146.19
2022-12-11T22:18:30.743Z,99139.25
2022-12-11T22:21:32.876Z,99140.06
2022-12-11T22:24:35.323Z,99136.69
2022-12-11T22:27:37.426Z,99149.06
2022-12-11T22:30:40.171Z,99137.63
2022-12-11T22:33:42.610Z,99140.25
2022-12-11T22:36:45.053Z,99122.56
2022-12-11T22:39:47.268Z,99122.97
2022-12-11T22:42:49.712Z,99133.75
2022-12-11T22:45:51.835Z,99134.53
2022-12-11T22:48:54.938Z,99140.47
2022-12-11T22:51:57.728Z,99148.13
2022-12-11T22:55:00.231Z,99147.31
2022-12-11T22:58:02.359Z,99148.25
2022-12-11T23:01:11.068Z,99145.72
2022-12-11T23:04:13.435Z,99152.75
2022-12-11T23:07:15.885Z,99159.75
2022-12-11T23:10:18.082Z,99160.38
2022-12-11T23:13:20.504Z,99159.12
2022-12-11T23:16:26.602Z,99147.72
2022-12-11T23:19:29.109Z,99148.44
2022-12-11T23:22:31.663Z,99156.88
2022-12-11T23:25:34.434Z,99168.63
2022-12-11T23:28:36.950Z,99158.72
2022-12-11T23:31:39.467Z,99146.66
2022-12-11T23:34:41.630Z,99156.88
2022-12-11T23:37:44.005Z,99157.47
2022-12-11T23:40:46.199Z,99154.47
2022-12-11T23:43:48.739Z,99158.19
2022-12-11T23:46:50.863Z,99151.31
2022-12-11T23:49:53.295Z,99156.00
2022-12-11T23:52:55.373Z,99156.47
2022-12-11T23:56:04.354Z,99157.06
2022-12-11T23:59:06.518Z,99149.09
